Time;durP1;ratioP1;P1;durP2;ratioP2;P2;SDS_P1;SDS_P2;PMS_P1;PMS_P2;Temp;Humidity;BMP_temperature;BMP_pressure;BME280_temperature;BME280_humidity;BME280_pressure;Samples;Min_cycle;Max_cycle;Signal;HPM_P1;HPM_P2
2021/09/12 00:01:10;;;;;;;5.50;4.90;;;15.70;94.90;;;;;;5054431;28;20436;-70
2021/09/12 00:03:38;;;;;;;5.20;3.97;;;15.70;94.80;;;;;;5051362;28;20469;-67
2021/09/12 00:06:05;;;;;;;7.13;5.50;;;15.60;94.50;;;;;;5054355;28;20433;-68
2021/09/12 00:08:32;;;;;;;5.70;4.70;;;15.60;94.40;;;;;;5039614;28;20533;-68
2021/09/12 00:11:04;;;;;;;8.47;5.37;;;15.60;94.50;;;;;;5034337;28;20473;-67
2021/09/12 00:13:31;;;;;;;10.03;5.50;;;15.50;94.80;;;;;;5034026;28;20560;-68
2021/09/12 00:16:04;;;;;;;7.60;6.00;;;15.50;95.00;;;;;;5033861;28;21070;-67
2021/09/12 00:18:34;;;;;;;6.53;5.70;;;15.50;95.20;;;;;;5033743;28;20539;-68
2021/09/12 00:21:03;;;;;;;7.20;5.70;;;15.50;95.30;;;;;;5034170;28;21027;-68
2021/09/12 00:23:31;;;;;;;9.00;6.20;;;15.50;95.40;;;;;;5033619;28;20972;-68
2021/09/12 00:25:58;;;;;;;6.70;5.00;;;15.50;95.40;;;;;;5034199;28;20488;-67
2021/09/12 00:28:26;;;;;;;6.33;5.53;;;15.50;95.60;;;;;;5044204;28;20437;-68
2021/09/12 00:30:55;;;;;;;9.13;6.60;;;15.50;95.80;;;;;;5053945;28;20483;-68
2021/09/12 00:33:21;;;;;;;8.63;6.13;;;15.50;95.90;;;;;;5050568;28;20567;-67
2021/09/12 00:35:50;;;;;;;9.93;5.97;;;15.60;96.10;;;;;;5053888;28;20866;-67
2021/09/12 00:38:18;;;;;;;8.93;6.40;;;15.60;96.00;;;;;;5040945;28;20512;-68
2021/09/12 00:40:47;;;;;;;6.33;5.30;;;15.60;95.90;;;;;;5042349;28;20532;-68
2021/09/12 00:43:16;;;;;;;5.90;4.80;;;15.60;95.80;;;;;;5053945;28;20868;-68
2021/09/12 00:45:51;;;;;;;7.37;6.00;;;15.50;95.70;;;;;;5034511;28;20516;-68
2021/09/12 00:48:20;;;;;;;6.07;5.20;;;15.60;95.60;;;;;;5033733;28;20441;-68
2021/09/12 00:50:47;;;;;;;6.80;4.63;;;15.50;95.70;;;;;;5051396;28;20449;-68
2021/09/12 00:53:18;;;;;;;7.43;5.40;;;15.50;95.70;;;;;;5053524;28;20476;-67
2021/09/12 00:55:48;;;;;;;6.30;4.60;;;15.50;95.70;;;;;;5052980;28;20480;-69
2021/09/12 00:58:17;;;;;;;5.40;4.67;;;15.40;95.20;;;;;;5039240;28;20529;-68
2021/09/12 01:00:49;;;;;;;4.90;4.23;;;15.40;94.70;;;;;;5032852;28;20852;-68
2021/09/12 01:03:20;;;;;;;6.43;4.60;;;15.30;94.70;;;;;;5033087;28;20434;-68
2021/09/12 01:05:47;;;;;;;5.00;3.67;;;15.30;95.00;;;;;;5045856;28;20848;-68
2021/09/12 01:08:16;;;;;;;6.03;5.00;;;15.20;95.30;;;;;;5053294;28;20528;-68
2021/09/12 01:10:49;;;;;;;8.10;5.27;;;15.20;95.40;;;;;;5049867;28;20536;-68
2021/09/12 01:13:16;;;;;;;6.33;4.60;;;15.20;95.40;;;;;;5053292;28;20686;-68
2021/09/12 01:15:43;;;;;;;6.70;4.70;;;15.20;95.40;;;;;;5052501;28;20484;-68
2021/09/12 01:18:11;;;;;;;5.67;4.23;;;15.20;95.10;;;;;;5048877;28;20442;-67
2021/09/12 01:20:39;;;;;;;5.00;3.57;;;15.10;95.20;;;;;;5033380;28;20519;-68
2021/09/12 01:23:07;;;;;;;6.30;5.10;;;15.10;95.00;;;;;;5038720;28;20441;-67
2021/09/12 01:25:37;;;;;;;5.87;4.47;;;15.10;95.50;;;;;;5033298;28;20890;-69
2021/09/12 01:28:07;;;;;;;6.03;4.73;;;15.10;95.80;;;;;;5044290;28;20441;-67
2021/09/12 01:30:34;;;;;;;5.70;5.10;;;15.10;96.10;;;;;;5052886;28;20802;-67
2021/09/12 01:33:11;;;;;;;6.70;4.80;;;15.20;96.40;;;;;;5041770;28;20480;-66
2021/09/12 01:35:43;;;;;;;6.87;4.57;;;15.20;96.30;;;;;;5033057;28;20827;-68
2021/09/12 01:38:11;;;;;;;5.20;4.60;;;15.20;96.50;;;;;;5032442;28;20478;-68
2021/09/12 01:40:39;;;;;;;7.40;5.60;;;15.20;96.60;;;;;;5033158;28;20528;-68
2021/09/12 01:43:12;;;;;;;8.87;5.57;;;15.20;96.60;;;;;;5032112;28;20469;-68
2021/09/12 01:45:41;;;;;;;5.80;4.20;;;15.20;96.50;;;;;;5032631;28;20472;-68
2021/09/12 01:48:08;;;;;;;6.13;4.70;;;15.10;96.60;;;;;;5041968;28;20436;-68
2021/09/12 01:50:40;;;;;;;6.00;4.47;;;15.10;96.60;;;;;;5052673;28;20931;-68
2021/09/12 01:53:07;;;;;;;6.30;4.70;;;15.10;96.80;;;;;;5042824;28;20568;-68
2021/09/12 01:55:34;;;;;;;8.20;5.23;;;15.10;96.80;;;;;;5032643;28;20541;-69
2021/09/12 01:58:03;;;;;;;6.07;5.33;;;15.10;96.80;;;;;;5032451;28;20607;-68
2021/09/12 02:00:31;;;;;;;4.17;3.77;;;15.10;96.50;;;;;;5032394;28;20437;-68
2021/09/12 02:03:02;;;;;;;5.97;4.93;;;15.10;96.20;;;;;;5038797;28;20837;-68
2021/09/12 02:05:34;;;;;;;4.93;4.43;;;15.10;96.00;;;;;;5052413;28;20429;-68
2021/09/12 02:08:01;;;;;;;6.37;4.63;;;15.10;96.10;;;;;;5052005;28;20536;-68
2021/09/12 02:10:32;;;;;;;5.10;3.83;;;15.10;96.10;;;;;;5051995;28;20523;-68
2021/09/12 02:13:06;;;;;;;4.83;3.63;;;15.00;96.10;;;;;;5049417;28;20504;-68
2021/09/12 02:15:34;;;;;;;5.77;4.27;;;15.00;95.70;;;;;;5052685;28;20524;-68
2021/09/12 02:18:06;;;;;;;4.93;4.30;;;15.00;95.70;;;;;;5042549;28;20548;-68
2021/09/12 02:20:34;;;;;;;7.17;5.90;;;15.00;95.70;;;;;;5032253;28;20437;-68
2021/09/12 02:23:01;;;;;;;7.53;5.30;;;15.00;95.90;;;;;;5039832;28;20986;-68
2021/09/12 02:25:28;;;;;;;7.27;6.00;;;15.00;96.10;;;;;;5035568;28;20442;-68
2021/09/12 02:27:57;;;;;;;4.77;4.20;;;15.00;96.30;;;;;;5038381;28;20507;-68
2021/09/12 02:30:26;;;;;;;8.83;5.03;;;15.00;96.30;;;;;;5052223;28;20491;-68
2021/09/12 02:32:55;;;;;;;6.50;5.20;;;14.90;96.10;;;;;;5051107;28;20563;-68
2021/09/12 02:35:24;;;;;;;6.33;4.40;;;14.90;96.10;;;;;;5052200;28;20830;-69
2021/09/12 02:37:53;;;;;;;5.67;4.97;;;14.80;96.00;;;;;;5051798;28;20765;-68
2021/09/12 02:40:28;;;;;;;7.10;4.60;;;14.80;95.90;;;;;;5052153;28;20479;-69
2021/09/12 02:42:57;;;;;;;7.53;4.27;;;14.80;95.90;;;;;;5047242;28;20528;-68
2021/09/12 02:45:30;;;;;;;5.70;4.30;;;14.80;95.80;;;;;;5031801;28;20438;-68
2021/09/12 02:47:59;;;;;;;5.33;3.77;;;14.80;95.50;;;;;;5035983;28;20527;-68
2021/09/12 02:50:31;;;;;;;5.03;4.27;;;14.80;95.30;;;;;;5052207;28;20472;-68
2021/09/12 02:53:04;;;;;;;6.60;4.10;;;14.80;95.40;;;;;;5046945;28;20889;-67
2021/09/12 02:55:33;;;;;;;3.97;3.57;;;14.80;95.30;;;;;;5032264;28;20496;-67
2021/09/12 02:58:01;;;;;;;4.07;3.27;;;14.80;95.40;;;;;;5035458;28;20433;-67
2021/09/12 03:00:33;;;;;;;5.50;3.90;;;14.70;95.40;;;;;;5051642;28;20536;-67
2021/09/12 03:03:02;;;;;;;4.60;3.57;;;14.70;95.10;;;;;;5051347;28;20805;-67
2021/09/12 03:05:30;;;;;;;4.20;3.47;;;14.60;94.80;;;;;;5052061;28;20536;-67
2021/09/12 03:08:06;;;;;;;5.20;3.60;;;14.60;94.30;;;;;;5049565;28;20449;-68
2021/09/12 03:10:38;;;;;;;4.93;3.47;;;14.50;93.70;;;;;;5051825;28;20444;-67
2021/09/12 03:13:05;;;;;;;6.17;4.00;;;14.40;93.40;;;;;;5048863;28;20567;-67
2021/09/12 03:15:34;;;;;;;4.37;2.97;;;14.30;93.50;;;;;;5051875;28;20547;-67
2021/09/12 03:18:01;;;;;;;4.53;3.23;;;14.30;93.80;;;;;;5050864;28;20468;-67
2021/09/12 03:20:28;;;;;;;3.77;3.47;;;14.30;94.10;;;;;;5051682;28;20472;-67
2021/09/12 03:22:55;;;;;;;4.57;3.50;;;14.30;94.30;;;;;;5047309;28;20448;-68
2021/09/12 03:25:28;;;;;;;4.40;3.10;;;14.30;94.50;;;;;;5035387;28;20853;-68
2021/09/12 03:27:55;;;;;;;3.43;2.80;;;14.30;94.70;;;;;;5034966;28;20443;-67
2021/09/12 03:30:23;;;;;;;5.37;4.10;;;14.30;95.00;;;;;;5034969;28;20965;-67
2021/09/12 03:32:55;;;;;;;5.57;4.97;;;14.30;95.20;;;;;;5036332;28;20571;-68
2021/09/12 03:35:23;;;;;;;7.20;4.40;;;14.30;95.20;;;;;;5055262;28;20433;-68
2021/09/12 03:37:55;;;;;;;5.93;4.60;;;14.30;95.40;;;;;;5054416;28;20471;-68
2021/09/12 03:40:26;;;;;;;6.37;4.80;;;14.30;95.50;;;;;;5055230;28;20821;-67
2021/09/12 03:42:57;;;;;;;5.57;4.47;;;14.30;95.40;;;;;;5054387;28;20531;-68
2021/09/12 03:45:25;;;;;;;4.20;3.47;;;14.30;95.20;;;;;;5055000;28;20536;-67
2021/09/12 03:47:52;;;;;;;6.33;4.67;;;14.30;94.90;;;;;;5054560;28;20480;-68
2021/09/12 03:50:20;;;;;;;6.03;5.43;;;14.30;94.90;;;;;;5035231;28;20516;-67
2021/09/12 03:52:47;;;;;;;4.40;4.00;;;14.30;95.10;;;;;;5034714;28;20987;-68
2021/09/12 03:55:14;;;;;;;6.73;4.33;;;14.30;95.30;;;;;;5034838;28;20525;-68
2021/09/12 03:57:45;;;;;;;5.73;3.30;;;14.30;95.40;;;;;;5035110;28;20524;-67
2021/09/12 04:00:16;;;;;;;5.97;4.03;;;14.30;95.30;;;;;;5035266;28;20473;-69
2021/09/12 04:02:48;;;;;;;5.50;3.97;;;14.30;95.00;;;;;;5034208;28;20481;-71
2021/09/12 04:05:21;;;;;;;5.00;4.20;;;14.30;95.00;;;;;;5033532;28;20438;-68
2021/09/12 04:07:49;;;;;;;3.93;3.10;;;14.20;94.70;;;;;;5034402;28;20480;-69
2021/09/12 04:10:18;;;;;;;4.77;4.13;;;14.20;94.40;;;;;;5054675;28;20532;-68
2021/09/12 04:12:56;;;;;;;6.13;4.20;;;14.10;94.30;;;;;;5054673;28;20475;-68
2021/09/12 04:15:34;;;;;;;4.20;3.63;;;14.10;94.30;;;;;;5054509;28;20454;-71
2021/09/12 04:18:04;;;;;;;5.73;3.73;;;14.00;94.60;;;;;;5052697;28;21065;-66
2021/09/12 04:20:32;;;;;;;3.73;3.33;;;14.00;94.60;;;;;;5034685;28;20524;-66
2021/09/12 04:22:59;;;;;;;4.30;3.50;;;14.00;94.60;;;;;;5034436;28;20484;-66
2021/09/12 04:25:34;;;;;;;4.23;3.63;;;14.00;94.50;;;;;;5054370;28;20906;-68
2021/09/12 04:28:09;;;;;;;6.03;5.37;;;13.90;94.80;;;;;;5051489;28;20468;-68
2021/09/12 04:30:38;;;;;;;6.30;5.03;;;13.90;95.00;;;;;;5054497;28;20523;-69
2021/09/12 04:33:08;;;;;;;6.40;5.00;;;13.90;95.00;;;;;;5054381;28;20527;-68
2021/09/12 04:35:36;;;;;;;8.57;6.67;;;13.90;95.30;;;;;;5052972;28;20512;-68
2021/09/12 04:38:08;;;;;;;8.20;5.10;;;13.80;95.40;;;;;;5054198;28;20469;-68
2021/09/12 04:40:35;;;;;;;10.37;5.80;;;13.90;95.60;;;;;;5054177;28;20525;-68
2021/09/12 04:43:08;;;;;;;14.20;6.67;;;13.90;95.60;;;;;;5054035;28;20571;-68
2021/09/12 04:45:36;;;;;;;10.30;6.13;;;13.90;95.90;;;;;;5053902;28;20433;-71
2021/09/12 04:48:07;;;;;;;8.00;4.97;;;13.90;95.90;;;;;;5054287;28;20548;-67
2021/09/12 04:50:40;;;;;;;16.50;5.00;;;13.90;95.80;;;;;;5054268;28;20488;-68
2021/09/12 04:53:07;;;;;;;11.70;4.97;;;13.90;95.70;;;;;;5053825;28;20568;-68
2021/09/12 04:55:39;;;;;;;4.77;4.00;;;13.90;95.90;;;;;;5053755;28;20457;-68
2021/09/12 04:58:11;;;;;;;6.17;4.43;;;13.90;96.00;;;;;;5053797;28;20843;-68
2021/09/12 05:00:42;;;;;;;11.43;4.50;;;13.90;96.20;;;;;;5053818;28;20587;-69
2021/09/12 05:03:14;;;;;;;7.53;3.70;;;13.90;96.10;;;;;;5053786;28;20433;-68
2021/09/12 05:05:46;;;;;;;4.27;3.87;;;13.90;96.10;;;;;;5054062;28;20444;-68
2021/09/12 05:08:15;;;;;;;5.80;3.63;;;13.90;96.00;;;;;;5053686;28;20520;-69
2021/09/12 05:10:42;;;;;;;5.93;4.20;;;14.00;96.10;;;;;;5053571;28;20547;-68
2021/09/12 05:13:11;;;;;;;5.13;4.10;;;14.00;96.30;;;;;;5053263;28;20682;-69
2021/09/12 05:15:43;;;;;;;8.17;5.30;;;14.00;96.40;;;;;;5053648;28;20516;-68
2021/09/12 05:18:10;;;;;;;7.37;4.80;;;14.10;96.60;;;;;;5053532;28;20421;-68
2021/09/12 05:20:39;;;;;;;6.23;4.53;;;14.10;96.60;;;;;;5053460;28;20468;-68
2021/09/12 05:23:08;;;;;;;4.93;4.10;;;14.10;96.50;;;;;;5053292;28;20475;-68
2021/09/12 05:25:39;;;;;;;7.03;3.90;;;14.00;96.70;;;;;;5053172;28;20950;-68
2021/09/12 05:28:09;;;;;;;4.87;3.80;;;14.10;96.80;;;;;;5053004;28;20957;-68
2021/09/12 05:30:40;;;;;;;3.70;3.13;;;14.10;96.50;;;;;;5053300;28;20524;-68
2021/09/12 05:33:07;;;;;;;5.13;4.10;;;14.10;96.80;;;;;;5053510;28;20460;-68
2021/09/12 05:35:35;;;;;;;9.77;4.03;;;14.20;96.50;;;;;;5053523;28;20520;-68
2021/09/12 05:38:02;;;;;;;5.03;3.73;;;14.20;96.70;;;;;;5053445;28;20432;-68
2021/09/12 05:40:31;;;;;;;6.30;5.63;;;14.30;96.90;;;;;;5053056;28;20439;-68
2021/09/12 05:43:00;;;;;;;5.70;4.93;;;14.40;97.00;;;;;;5052966;28;20480;-68
2021/09/12 05:45:33;;;;;;;5.70;4.50;;;14.50;97.30;;;;;;5052971;28;20823;-68
2021/09/12 05:48:01;;;;;;;6.40;5.20;;;14.50;97.20;;;;;;5052822;28;20440;-68
2021/09/12 05:50:28;;;;;;;6.10;4.80;;;14.70;97.40;;;;;;5053256;28;20831;-68
2021/09/12 05:52:55;;;;;;;9.07;6.53;;;14.80;97.20;;;;;;5053005;28;20891;-68
2021/09/12 05:55:27;;;;;;;5.40;4.03;;;14.90;97.00;;;;;;5053068;28;20432;-68
2021/09/12 05:57:56;;;;;;;4.57;3.80;;;15.00;96.80;;;;;;5052797;28;20516;-68
2021/09/12 06:00:27;;;;;;;4.57;3.23;;;15.10;96.40;;;;;;5053016;28;20532;-68
2021/09/12 06:02:59;;;;;;;4.80;4.07;;;15.20;96.30;;;;;;5052953;28;20532;-68
2021/09/12 06:05:26;;;;;;;4.90;4.40;;;15.30;96.20;;;;;;5053093;28;20521;-68
2021/09/12 06:07:53;;;;;;;4.60;3.70;;;15.30;96.00;;;;;;5053006;28;20517;-68
2021/09/12 06:10:21;;;;;;;8.00;4.80;;;15.40;96.20;;;;;;5052643;28;20524;-68
2021/09/12 06:12:48;;;;;;;5.30;4.70;;;15.50;96.00;;;;;;5052420;28;20512;-69
2021/09/12 06:15:19;;;;;;;5.40;4.23;;;15.60;96.10;;;;;;5052741;28;20512;-69
2021/09/12 06:17:48;;;;;;;4.70;4.20;;;15.80;96.00;;;;;;5052438;28;20784;-69
2021/09/12 06:20:19;;;;;;;5.20;4.27;;;15.80;96.00;;;;;;5052326;28;20504;-70
2021/09/12 06:22:47;;;;;;;7.10;4.00;;;15.90;96.00;;;;;;5052963;28;20519;-68
2021/09/12 06:25:19;;;;;;;6.90;4.90;;;16.10;96.30;;;;;;5052735;28;20516;-69
2021/09/12 06:27:51;;;;;;;8.17;6.00;;;16.30;96.30;;;;;;5052896;28;20855;-69
2021/09/12 06:30:24;;;;;;;7.50;5.63;;;16.40;96.00;;;;;;5052512;28;20440;-70
2021/09/12 06:32:51;;;;;;;7.07;5.80;;;16.50;95.80;;;;;;5052122;28;20423;-68
2021/09/12 06:35:18;;;;;;;6.77;5.30;;;16.80;96.10;;;;;;5052515;28;20516;-68
2021/09/12 06:37:45;;;;;;;7.20;5.80;;;16.90;95.80;;;;;;5052523;28;20464;-69
2021/09/12 06:40:16;;;;;;;8.53;5.70;;;17.10;95.80;;;;;;5052263;28;20508;-68
2021/09/12 06:42:48;;;;;;;8.80;6.13;;;17.20;95.20;;;;;;5052416;28;20456;-69
2021/09/12 06:45:18;;;;;;;11.50;7.00;;;17.30;95.00;;;;;;5052466;28;20461;-69
2021/09/12 06:47:50;;;;;;;8.90;6.47;;;17.50;94.90;;;;;;5052668;28;20436;-68
2021/09/12 06:50:19;;;;;;;10.40;7.33;;;17.60;94.60;;;;;;5052565;28;20464;-69
2021/09/12 06:52:50;;;;;;;7.90;6.53;;;17.70;94.50;;;;;;5052383;28;20838;-66
2021/09/12 06:55:22;;;;;;;8.17;6.43;;;17.80;94.10;;;;;;5052051;28;20563;-69
2021/09/12 06:57:51;;;;;;;10.47;7.97;;;18.00;93.90;;;;;;5052574;28;20523;-68
2021/09/12 07:00:21;;;;;;;10.77;7.60;;;18.10;93.80;;;;;;5055798;28;20989;-69
2021/09/12 07:02:55;;;;;;;10.80;8.50;;;18.20;93.60;;;;;;5056435;28;20540;-69
2021/09/12 07:05:25;;;;;;;13.07;7.13;;;18.30;93.60;;;;;;5056096;28;20845;-69
2021/09/12 07:07:57;;;;;;;9.07;6.30;;;18.30;93.50;;;;;;5056127;28;20519;-69
2021/09/12 07:10:29;;;;;;;7.77;6.97;;;18.40;93.90;;;;;;5055982;28;20473;-69
2021/09/12 07:13:03;;;;;;;7.00;6.30;;;18.80;93.70;;;;;;5055786;28;20464;-69
2021/09/12 07:15:35;;;;;;;8.77;7.00;;;19.10;93.40;;;;;;5055913;28;20464;-68
2021/09/12 07:18:03;;;;;;;10.13;7.80;;;19.40;92.70;;;;;;5055956;28;20507;-69
2021/09/12 07:20:45;;;;;;;12.50;9.40;;;19.60;91.90;;;;;;5056070;28;20519;-69
2021/09/12 07:23:17;;;;;;;11.77;8.73;;;19.80;91.20;;;;;;5056109;28;20826;-68
2021/09/12 07:25:45;;;;;;;11.83;8.67;;;20.00;91.40;;;;;;5055881;28;20511;-69
2021/09/12 07:28:14;;;;;;;10.87;8.77;;;20.10;91.00;;;;;;5055471;28;20471;-68
2021/09/12 07:30:41;;;;;;;14.10;10.70;;;20.30;91.10;;;;;;5055626;28;20839;-69
2021/09/12 07:33:09;;;;;;;14.20;10.80;;;20.60;90.40;;;;;;5055748;28;20516;-67
2021/09/12 07:35:45;;;;;;;13.47;10.87;;;20.80;89.50;;;;;;5055563;28;20480;-68
2021/09/12 07:38:27;;;;;;;12.90;10.80;;;21.00;89.90;;;;;;5055505;28;20490;-68
2021/09/12 07:40:59;;;;;;;12.40;10.87;;;21.10;87.30;;;;;;5053050;28;20469;-68
2021/09/12 07:43:34;;;;;;;13.77;11.00;;;21.10;87.50;;;;;;5055602;28;20441;-68
2021/09/12 07:46:01;;;;;;;15.30;11.40;;;21.00;88.70;;;;;;5055391;28;20439;-69
2021/09/12 07:48:29;;;;;;;14.13;11.53;;;21.10;88.70;;;;;;5055509;28;20465;-68
2021/09/12 07:51:02;;;;;;;14.23;12.20;;;20.90;88.80;;;;;;5055182;28;20425;-68
2021/09/12 07:53:29;;;;;;;18.13;13.10;;;20.80;89.20;;;;;;5055438;28;20433;-68
2021/09/12 07:56:01;;;;;;;12.50;11.17;;;20.80;89.50;;;;;;5054889;28;20977;-68
2021/09/12 07:58:29;;;;;;;15.30;12.67;;;20.80;89.60;;;;;;5055282;28;20465;-68
2021/09/12 08:00:58;;;;;;;14.47;12.13;;;20.70;88.50;;;;;;5055165;28;20429;-70
2021/09/12 08:03:25;;;;;;;14.57;13.07;;;20.80;88.40;;;;;;5054906;28;20495;-68
2021/09/12 08:05:53;;;;;;;14.07;12.53;;;20.80;89.20;;;;;;5055194;28;20844;-70
2021/09/12 08:08:23;;;;;;;15.90;12.07;;;20.80;89.70;;;;;;5055032;28;20516;-68
2021/09/12 08:10:54;;;;;;;14.00;11.13;;;20.80;89.90;;;;;;5054725;28;20512;-68
2021/09/12 08:13:27;;;;;;;13.23;11.80;;;20.90;90.10;;;;;;5054757;28;20516;-69
2021/09/12 08:15:54;;;;;;;12.53;10.87;;;20.90;89.50;;;;;;5054374;28;20564;-68
2021/09/12 08:18:23;;;;;;;16.80;12.23;;;20.90;89.30;;;;;;5054727;28;20516;-68
2021/09/12 08:20:56;;;;;;;13.50;11.23;;;20.90;89.20;;;;;;5044734;28;20448;-69
2021/09/12 08:23:29;;;;;;;12.67;11.13;;;20.90;89.70;;;;;;5034138;28;20517;-69
2021/09/12 08:25:56;;;;;;;12.50;10.93;;;21.00;89.90;;;;;;5034391;28;20521;-68
2021/09/12 08:28:24;;;;;;;12.80;10.07;;;21.00;89.00;;;;;;5034172;28;20461;-69
2021/09/12 08:30:51;;;;;;;13.77;11.57;;;21.10;87.20;;;;;;5034281;28;20429;-69
2021/09/12 08:33:18;;;;;;;13.00;11.70;;;21.10;87.00;;;;;;5033945;28;20469;-69
2021/09/12 08:35:47;;;;;;;13.60;10.27;;;21.10;87.10;;;;;;5034106;28;20473;-69
2021/09/12 08:38:15;;;;;;;12.87;10.77;;;21.20;87.20;;;;;;5051509;28;20504;-69
2021/09/12 08:40:47;;;;;;;14.90;11.20;;;21.50;86.40;;;;;;5052004;28;20425;-68
2021/09/12 08:43:16;;;;;;;10.83;9.73;;;21.80;87.30;;;;;;5051499;28;20511;-69
2021/09/12 08:45:44;;;;;;;11.73;9.83;;;22.10;88.60;;;;;;5051658;28;20436;-71
2021/09/12 08:48:12;;;;;;;13.47;11.40;;;22.60;87.50;;;;;;5051930;28;20905;-68
2021/09/12 08:50:39;;;;;;;9.80;8.53;;;23.40;88.00;;;;;;5051900;28;20842;-69
2021/09/12 08:53:09;;;;;;;10.03;9.00;;;25.10;84.90;;;;;;5051180;28;20844;-77
2021/09/12 08:55:42;;;;;;;9.87;8.87;;;26.60;76.40;;;;;;5034067;28;20616;-69
2021/09/12 08:58:12;;;;;;;10.17;9.10;;;27.10;69.70;;;;;;5033884;28;20811;-69
2021/09/12 09:00:44;;;;;;;9.20;8.07;;;28.50;64.40;;;;;;5033801;28;20514;-69
2021/09/12 09:03:15;;;;;;;11.00;7.90;;;30.10;64.20;;;;;;5033905;28;20480;-68
2021/09/12 09:05:44;;;;;;;9.63;8.43;;;33.40;56.30;;;;;;5033595;28;20432;-67
2021/09/12 09:08:16;;;;;;;8.40;7.60;;;36.50;44.80;;;;;;5033370;28;20441;-67
2021/09/12 09:10:47;;;;;;;9.23;8.10;;;38.80;39.60;;;;;;5033413;28;20474;-69
2021/09/12 09:13:32;;;;;;;7.87;7.17;;;40.70;32.50;;;;;;5033470;28;20472;-68
2021/09/12 09:16:05;;;;;;;8.77;7.90;;;42.40;31.80;;;;;;5032661;28;20477;-69
2021/09/12 09:18:36;;;;;;;7.80;7.10;;;44.30;27.50;;;;;;5033257;28;20520;-68
2021/09/12 09:21:24;;;;;;;8.30;7.50;;;46.00;26.50;;;;;;5032623;28;20528;-68
2021/09/12 09:24:09;;;;;;;7.53;6.87;;;46.80;23.80;;;;;;5047399;28;20444;-68
2021/09/12 09:26:40;;;;;;;7.23;6.50;;;47.70;23.30;;;;;;5050502;28;20903;-68
2021/09/12 09:29:07;;;;;;;5.87;5.37;;;49.00;21.70;;;;;;5050916;28;20777;-68
2021/09/12 09:31:36;;;;;;;7.20;6.50;;;50.00;20.30;;;;;;5050769;28;20494;-68
2021/09/12 09:34:20;;;;;;;6.73;6.13;;;50.80;18.70;;;;;;5049785;28;20441;-69
2021/09/12 09:36:51;;;;;;;6.00;5.50;;;51.30;18.30;;;;;;5035718;28;20469;-68
2021/09/12 09:39:36;;;;;;;5.20;4.70;;;51.80;17.90;;;;;;5032947;28;20504;-70
2021/09/12 09:42:05;;;;;;;6.20;5.57;;;52.60;17.20;;;;;;5033318;28;20465;-69
2021/09/12 09:44:32;;;;;;;5.20;4.80;;;53.20;16.50;;;;;;5033133;28;20877;-68
2021/09/12 09:47:09;;;;;;;6.80;5.23;;;53.90;16.00;;;;;;5032567;28;20858;-69
2021/09/12 09:49:38;;;;;;;5.87;5.47;;;54.00;15.90;;;;;;5032435;28;20934;-70
2021/09/12 09:52:12;;;;;;;5.33;4.83;;;54.60;14.90;;;;;;5032617;28;20817;-70
2021/09/12 09:54:41;;;;;;;4.70;4.30;;;55.30;15.00;;;;;;5032871;28;20445;-69
2021/09/12 09:57:10;;;;;;;4.70;4.30;;;55.70;14.90;;;;;;5050171;28;20527;-69
2021/09/12 09:59:42;;;;;;;4.90;4.50;;;56.20;14.20;;;;;;5050367;28;20429;-69
2021/09/12 10:02:17;;;;;;;4.70;4.30;;;56.50;13.70;;;;;;5050574;28;20509;-69
2021/09/12 10:04:44;;;;;;;4.17;3.77;;;56.90;13.60;;;;;;5050394;28;20521;-69
2021/09/12 10:07:19;;;;;;;4.80;4.40;;;57.20;13.30;;;;;;5050630;28;20521;-69
2021/09/12 10:09:51;;;;;;;5.47;5.07;;;55.80;12.60;;;;;;5049629;28;20420;-69
2021/09/12 10:12:20;;;;;;;5.20;4.70;;;53.30;13.30;;;;;;5050213;28;20798;-69
2021/09/12 10:14:51;;;;;;;5.33;4.47;;;50.50;14.30;;;;;;5043035;28;20457;-68
2021/09/12 10:17:22;;;;;;;4.37;3.97;;;49.40;16.30;;;;;;5032237;28;20458;-68
2021/09/12 10:19:50;;;;;;;4.67;4.30;;;50.10;17.40;;;;;;5032709;28;20441;-70
2021/09/12 10:22:20;;;;;;;4.67;4.27;;;51.70;16.40;;;;;;5032646;28;20782;-69
2021/09/12 10:25:08;;;;;;;4.93;4.53;;;53.10;15.40;;;;;;5049487;28;20566;-68
2021/09/12 10:27:38;;;;;;;4.87;3.47;;;53.90;14.30;;;;;;5041414;28;20511;-69
2021/09/12 10:30:27;;;;;;;4.50;4.10;;;54.50;14.40;;;;;;5032414;28;20927;-69
2021/09/12 10:33:11;;;;;;;4.20;3.90;;;55.40;13.40;;;;;;5032590;28;20473;-69
2021/09/12 10:35:39;;;;;;;4.83;4.13;;;53.10;13.00;;;;;;5035962;28;20824;-68
2021/09/12 10:38:08;;;;;;;4.23;3.83;;;50.30;14.80;;;;;;5050037;28;20520;-68
2021/09/12 10:41:11;;;;;;;4.87;4.00;;;50.60;15.60;;;;;;5054314;28;20433;-69
2021/09/12 10:43:50;;;;;;;6.40;3.70;;;52.20;16.00;;;;;;5054296;28;20490;-68
2021/09/12 10:46:38;;;;;;;4.20;3.90;;;53.40;14.60;;;;;;5036339;28;20477;-69
2021/09/12 10:49:13;;;;;;;3.30;3.00;;;54.60;14.40;;;;;;5036445;28;20544;-68
2021/09/12 10:51:44;;;;;;;4.27;3.90;;;54.90;14.10;;;;;;5035902;28;20479;-69
2021/09/12 10:54:12;;;;;;;4.43;3.97;;;55.30;14.00;;;;;;5036366;28;20442;-69
2021/09/12 10:56:40;;;;;;;3.87;3.50;;;56.10;13.30;;;;;;5036350;28;20931;-69
2021/09/12 10:59:15;;;;;;;3.80;3.30;;;55.70;12.90;;;;;;5035818;28;20425;-71
2021/09/12 11:01:49;;;;;;;3.40;3.10;;;56.00;13.10;;;;;;5049702;28;20444;-69
2021/09/12 11:04:17;;;;;;;4.10;3.77;;;56.20;12.00;;;;;;5053841;28;20440;-68
2021/09/12 11:06:47;;;;;;;4.27;3.87;;;53.90;12.80;;;;;;5053442;28;20555;-69
2021/09/12 11:09:20;;;;;;;4.73;4.17;;;51.50;12.90;;;;;;5035690;28;20936;-69
2021/09/12 11:11:48;;;;;;;4.10;3.70;;;48.50;14.60;;;;;;5035773;28;20512;-69
2021/09/12 11:14:20;;;;;;;4.73;4.20;;;46.00;16.10;;;;;;5042554;28;20507;-69
2021/09/12 11:16:47;;;;;;;5.63;4.13;;;43.70;17.80;;;;;;5044758;28;20822;-68
2021/09/12 11:19:14;;;;;;;5.53;3.67;;;44.00;20.30;;;;;;5042264;28;20452;-69
2021/09/12 11:21:45;;;;;;;4.37;3.97;;;45.60;20.70;;;;;;5041681;28;20526;-69
2021/09/12 11:24:14;;;;;;;3.50;3.20;;;47.80;18.20;;;;;;5044025;28;20838;-68
2021/09/12 11:26:43;;;;;;;4.50;4.10;;;49.30;17.10;;;;;;5041985;28;20498;-68
2021/09/12 11:29:12;;;;;;;3.83;3.50;;;51.10;16.20;;;;;;5044477;28;20428;-69
2021/09/12 11:31:43;;;;;;;4.57;4.13;;;52.40;15.70;;;;;;5044034;28;20915;-68
2021/09/12 11:34:10;;;;;;;3.47;2.97;;;53.30;14.60;;;;;;5042493;28;20436;-69
2021/09/12 11:36:45;;;;;;;3.13;2.83;;;54.00;14.50;;;;;;5043603;28;20444;-69
2021/09/12 11:39:14;;;;;;;2.53;2.33;;;54.70;14.00;;;;;;5044236;28;20756;-69
2021/09/12 11:41:42;;;;;;;3.53;3.23;;;54.30;12.50;;;;;;5041407;28;20851;-68
2021/09/12 11:44:10;;;;;;;3.20;2.90;;;52.60;12.30;;;;;;5035060;28;20442;-69
2021/09/12 11:46:47;;;;;;;3.20;2.90;;;51.20;13.10;;;;;;5033951;28;20551;-68
2021/09/12 11:49:15;;;;;;;2.80;2.60;;;51.00;14.50;;;;;;5034184;28;20483;-70
2021/09/12 11:51:48;;;;;;;3.20;2.90;;;52.00;14.80;;;;;;5034261;28;20468;-70
2021/09/12 11:54:19;;;;;;;3.17;2.87;;;53.10;14.40;;;;;;5041561;28;20437;-68
2021/09/12 11:56:54;;;;;;;3.03;2.70;;;54.00;14.20;;;;;;5043293;28;20920;-68
2021/09/12 11:59:21;;;;;;;3.13;2.83;;;54.30;13.80;;;;;;5041925;28;20449;-69
2021/09/12 12:01:57;;;;;;;3.07;2.77;;;54.80;13.20;;;;;;5043513;28;20536;-69
2021/09/12 12:04:25;;;;;;;2.90;2.40;;;54.10;13.40;;;;;;5041175;28;20447;-69
2021/09/12 12:06:55;;;;;;;3.20;2.60;;;54.50;13.00;;;;;;5043488;28;20477;-68
2021/09/12 12:09:28;;;;;;;3.73;1.97;;;55.00;12.70;;;;;;5043988;28;20441;-69
2021/09/12 12:12:06;;;;;;;3.10;2.53;;;54.90;12.00;;;;;;5041000;28;20438;-68
2021/09/12 12:14:33;;;;;;;2.90;2.60;;;53.50;13.00;;;;;;5040818;28;20911;-69
2021/09/12 12:17:05;;;;;;;2.67;2.47;;;53.70;13.30;;;;;;5040513;28;20461;-69
2021/09/12 12:19:34;;;;;;;3.80;2.50;;;53.80;13.20;;;;;;5040893;28;20528;-69
2021/09/12 12:22:05;;;;;;;4.03;2.77;;;53.40;12.60;;;;;;5043547;28;20461;-71
2021/09/12 12:24:36;;;;;;;3.60;2.30;;;52.20;13.40;;;;;;5040150;28;20432;-69
2021/09/12 12:27:08;;;;;;;3.60;2.93;;;50.90;13.60;;;;;;5040370;28;20485;-68
2021/09/12 12:29:36;;;;;;;3.73;3.23;;;49.30;14.10;;;;;;5043700;28;20435;-69
2021/09/12 12:32:06;;;;;;;2.83;2.60;;;47.90;14.70;;;;;;5040449;28;20445;-69
2021/09/12 12:34:44;;;;;;;3.00;2.40;;;46.20;16.10;;;;;;5040931;28;20456;-69
2021/09/12 12:37:14;;;;;;;3.40;2.83;;;45.00;16.80;;;;;;5039963;28;20990;-70
2021/09/12 12:39:41;;;;;;;3.80;2.53;;;44.20;18.40;;;;;;5040796;28;20537;-69
2021/09/12 12:42:09;;;;;;;3.50;2.53;;;43.80;19.30;;;;;;5043331;28;20540;-69
2021/09/12 12:44:45;;;;;;;3.03;2.70;;;43.20;19.70;;;;;;5040330;28;20469;-69
2021/09/12 12:47:29;;;;;;;2.93;2.63;;;42.60;20.30;;;;;;5040638;28;20565;-69
2021/09/12 12:50:00;;;;;;;4.37;2.90;;;41.80;19.80;;;;;;5041002;28;20903;-69
2021/09/12 12:52:28;;;;;;;4.60;2.60;;;40.90;19.90;;;;;;5041903;28;20433;-68
2021/09/12 12:54:55;;;;;;;4.10;2.93;;;39.80;21.10;;;;;;5041359;28;20524;-69
2021/09/12 12:57:22;;;;;;;3.07;2.77;;;38.80;22.10;;;;;;5040688;28;20915;-69
2021/09/12 12:59:50;;;;;;;3.63;3.20;;;37.70;23.30;;;;;;5042217;28;20433;-68